Time;durP1;ratioP1;P1;durP2;ratioP2;P2;SDS_P1;SDS_P2;PMS_P1;PMS_P2;Temp;Humidity;BMP_temperature;BMP_pressure;BME280_temperature;BME280_humidity;BME280_pressure;Samples;Min_cycle;Max_cycle;Signal;HPM_P1;HPM_P2
2021/03/30 00:00:12;;;;;;;14.98;9.75;;;25.20;37.40;;;;;;5069520;28;20024;-68
2021/03/30 00:02:37;;;;;;;15.40;9.68;;;25.20;37.50;;;;;;5089194;28;20138;-68
2021/03/30 00:05:04;;;;;;;14.10;9.27;;;25.20;37.50;;;;;;5081407;28;20098;-68
2021/03/30 00:07:30;;;;;;;13.77;8.90;;;25.20;37.50;;;;;;5085716;28;20065;-68
2021/03/30 00:09:55;;;;;;;14.20;8.57;;;25.10;37.50;;;;;;5082431;28;20028;-68
2021/03/30 00:12:21;;;;;;;14.30;9.38;;;25.10;37.50;;;;;;5082451;28;20025;-68
2021/03/30 00:14:47;;;;;;;13.73;8.80;;;25.10;37.50;;;;;;5070909;28;20102;-68
2021/03/30 00:17:13;;;;;;;13.05;8.35;;;25.00;37.50;;;;;;5080524;28;20427;-68
2021/03/30 00:19:39;;;;;;;13.85;8.77;;;25.00;37.60;;;;;;5081166;28;20110;-67
2021/03/30 00:22:04;;;;;;;13.48;8.05;;;25.00;37.60;;;;;;5084966;28;20028;-68
2021/03/30 00:24:30;;;;;;;11.70;8.00;;;25.00;37.60;;;;;;5076546;28;20024;-68
2021/03/30 00:26:56;;;;;;;11.48;8.07;;;24.90;37.60;;;;;;5061305;28;20051;-67
2021/03/30 00:29:22;;;;;;;12.25;8.20;;;24.90;37.60;;;;;;5077086;28;20028;-68
2021/03/30 00:31:47;;;;;;;12.82;8.20;;;24.90;37.70;;;;;;5084651;28;20067;-69
2021/03/30 00:34:13;;;;;;;12.05;8.10;;;24.90;37.70;;;;;;5068613;28;20032;-68
2021/03/30 00:36:39;;;;;;;11.52;7.40;;;24.80;37.70;;;;;;5088754;28;20030;-68
2021/03/30 00:39:05;;;;;;;13.23;8.50;;;24.80;37.70;;;;;;5080874;28;20028;-69
2021/03/30 00:41:39;;;;;;;11.70;7.60;;;24.80;37.70;;;;;;5086721;28;20559;-69
2021/03/30 00:44:10;;;;;;;11.15;7.50;;;24.80;37.80;;;;;;5081208;28;20021;-69
2021/03/30 00:46:35;;;;;;;11.98;7.28;;;24.80;37.80;;;;;;5086620;28;20012;-69
2021/03/30 00:49:01;;;;;;;10.80;7.28;;;24.80;37.80;;;;;;5084751;28;20035;-69
2021/03/30 00:51:27;;;;;;;10.75;6.57;;;24.70;37.80;;;;;;5083343;28;20036;-69
2021/03/30 00:53:52;;;;;;;11.52;7.30;;;24.70;37.80;;;;;;5064532;28;20085;-68
2021/03/30 00:56:18;;;;;;;12.50;7.57;;;24.70;37.80;;;;;;5088936;28;20386;-68
2021/03/30 00:58:47;;;;;;;11.05;7.35;;;24.70;37.90;;;;;;5087364;28;20044;-67
2021/03/30 01:01:13;;;;;;;11.27;7.15;;;24.60;37.90;;;;;;5088587;28;20068;-69
2021/03/30 01:03:38;;;;;;;10.85;7.15;;;24.60;37.90;;;;;;5081381;28;20052;-67
2021/03/30 01:06:04;;;;;;;11.20;7.30;;;24.60;37.90;;;;;;5072271;28;20028;-67
2021/03/30 01:08:48;;;;;;;12.40;7.28;;;24.60;37.90;;;;;;5069848;28;20027;-68
2021/03/30 01:11:35;;;;;;;10.70;7.40;;;24.60;38.00;;;;;;5061022;28;20043;-69
2021/03/30 01:14:21;;;;;;;10.38;6.85;;;24.60;38.00;;;;;;5065315;28;20048;-68
2021/03/30 01:16:57;;;;;;;10.18;7.03;;;24.60;38.00;;;;;;5049275;28;20690;-69
2021/03/30 01:20:00;;;;;;;11.20;6.53;;;24.50;38.00;;;;;;5065561;28;20032;-67
2021/03/30 01:23:06;;;;;;;11.70;7.28;;;24.50;38.00;;;;;;5084558;28;20028;-68
2021/03/30 01:25:38;;;;;;;9.55;6.05;;;24.50;38.10;;;;;;5085040;28;20032;-67
2021/03/30 01:28:36;;;;;;;11.48;7.15;;;24.40;38.10;;;;;;5078948;28;20024;-68
2021/03/30 01:31:02;;;;;;;10.10;6.47;;;24.40;38.20;;;;;;5065136;28;20056;-69
2021/03/30 01:33:33;;;;;;;11.05;6.70;;;24.40;38.10;;;;;;5064361;28;20043;-67
2021/03/30 01:36:00;;;;;;;9.63;6.38;;;24.40;38.10;;;;;;5084552;28;20085;-67
2021/03/30 01:38:26;;;;;;;10.65;6.95;;;24.30;38.10;;;;;;5086370;28;20131;-68
2021/03/30 01:40:54;;;;;;;10.32;6.60;;;24.30;38.10;;;;;;5087543;28;20060;-69
2021/03/30 01:43:21;;;;;;;9.73;6.50;;;24.30;38.10;;;;;;5084628;28;20028;-68
2021/03/30 01:45:52;;;;;;;10.48;6.38;;;24.30;38.10;;;;;;5080230;28;20055;-68
2021/03/30 01:48:20;;;;;;;11.98;7.18;;;24.30;38.10;;;;;;5079745;28;20020;-69
2021/03/30 01:50:47;;;;;;;10.25;6.03;;;24.30;38.10;;;;;;5087961;28;20070;-68
2021/03/30 01:53:13;;;;;;;8.82;5.93;;;24.30;38.20;;;;;;5083675;28;20526;-68
2021/03/30 01:55:39;;;;;;;8.35;5.50;;;24.20;38.10;;;;;;5086284;28;20126;-67
2021/03/30 01:58:06;;;;;;;9.73;6.57;;;24.20;38.20;;;;;;5085840;28;20028;-68
2021/03/30 02:00:36;;;;;;;9.15;6.10;;;24.20;38.20;;;;;;5087223;28;20055;-68
2021/03/30 02:03:03;;;;;;;8.70;6.03;;;24.20;38.20;;;;;;5067078;28;20058;-67
2021/03/30 02:05:29;;;;;;;10.48;6.53;;;24.10;38.20;;;;;;5073959;28;20090;-70
2021/03/30 02:07:59;;;;;;;8.80;5.72;;;24.20;38.30;;;;;;5071641;28;20050;-70
2021/03/30 02:13:04;;;;;;;9.07;6.03;;;24.10;38.30;;;;;;5084948;28;20032;-68
2021/03/30 02:15:30;;;;;;;8.73;5.95;;;24.10;38.30;;;;;;5084548;28;20033;-68
2021/03/30 02:18:07;;;;;;;9.30;5.95;;;24.10;38.30;;;;;;5087127;28;20051;-70
2021/03/30 02:20:46;;;;;;;9.77;6.10;;;24.10;38.30;;;;;;5085594;28;20149;-69
2021/03/30 02:23:16;;;;;;;8.32;5.55;;;24.10;38.30;;;;;;5077500;28;20032;-69
2021/03/30 02:25:49;;;;;;;9.52;5.82;;;24.10;38.30;;;;;;5071662;28;20024;-68
2021/03/30 02:28:23;;;;;;;8.65;5.50;;;24.10;38.30;;;;;;5063858;28;20083;-68
2021/03/30 02:30:49;;;;;;;8.32;5.25;;;24.10;38.30;;;;;;5079955;28;20036;-68
2021/03/30 02:33:20;;;;;;;8.75;5.40;;;24.00;38.30;;;;;;5085932;28;20101;-70
2021/03/30 02:35:53;;;;;;;9.00;5.50;;;24.00;38.30;;;;;;5082669;28;20024;-67
2021/03/30 02:38:19;;;;;;;8.70;5.28;;;24.00;38.30;;;;;;5082026;28;20078;-67
2021/03/30 02:40:47;;;;;;;9.45;5.85;;;23.90;38.30;;;;;;5075757;28;20386;-68
2021/03/30 02:43:14;;;;;;;9.10;5.50;;;23.90;38.30;;;;;;5071515;28;20114;-68
2021/03/30 02:45:42;;;;;;;8.88;5.30;;;23.90;38.30;;;;;;5088386;28;20443;-67
2021/03/30 02:48:08;;;;;;;7.38;4.85;;;23.90;38.30;;;;;;5090591;28;20032;-69
2021/03/30 02:50:35;;;;;;;8.02;5.15;;;23.90;38.30;;;;;;5087489;28;20352;-68
2021/03/30 02:53:03;;;;;;;7.22;4.97;;;23.90;38.30;;;;;;5090347;28;20036;-69
2021/03/30 02:55:34;;;;;;;8.10;5.45;;;23.90;38.40;;;;;;5089374;28;20433;-68
2021/03/30 02:58:00;;;;;;;8.18;4.90;;;23.90;38.40;;;;;;5089944;28;20024;-68
2021/03/30 03:00:27;;;;;;;7.22;5.13;;;23.90;38.40;;;;;;5072414;28;20106;-68
2021/03/30 03:02:55;;;;;;;7.22;4.63;;;23.80;38.30;;;;;;5077279;28;20028;-67
2021/03/30 03:05:21;;;;;;;7.18;4.75;;;23.80;38.30;;;;;;5085745;28;20358;-68
2021/03/30 03:07:48;;;;;;;7.95;5.18;;;23.80;38.90;;;;;;5072300;28;20020;-68
2021/03/30 03:10:14;;;;;;;7.55;5.15;;;23.80;38.30;;;;;;5069321;28;20060;-67
2021/03/30 03:12:43;;;;;;;9.00;5.05;;;23.80;38.40;;;;;;5072131;28;20434;-68
2021/03/30 03:15:13;;;;;;;8.43;5.25;;;23.80;38.40;;;;;;5083752;28;20033;-67
2021/03/30 03:17:41;;;;;;;7.85;4.78;;;23.80;38.40;;;;;;5072232;28;20028;-67
2021/03/30 03:20:09;;;;;;;7.38;4.40;;;23.80;38.50;;;;;;5089921;28;20071;-68
2021/03/30 03:22:35;;;;;;;8.25;5.00;;;23.80;38.50;;;;;;5079578;28;20023;-67
2021/03/30 03:25:01;;;;;;;7.55;5.05;;;23.70;38.40;;;;;;5066206;28;20067;-67
2021/03/30 03:27:28;;;;;;;7.40;5.13;;;23.70;38.40;;;;;;5070165;28;20494;-68
2021/03/30 03:29:56;;;;;;;6.85;4.82;;;23.70;38.50;;;;;;5088587;28;20058;-67
2021/03/30 03:32:25;;;;;;;8.05;5.05;;;23.70;38.40;;;;;;5070807;28;20091;-68
2021/03/30 03:34:51;;;;;;;;;;;23.70;38.50;;;;;;5089812;28;20035;-69
2021/03/30 03:37:16;;;;;;;7.25;4.85;;;23.70;38.50;;;;;;5079038;28;20006;-68
2021/03/30 03:39:42;;;;;;;7.82;4.65;;;23.70;38.50;;;;;;5086079;28;20032;-68
2021/03/30 03:42:08;;;;;;;6.47;4.50;;;23.70;38.50;;;;;;5089743;28;20039;-68
2021/03/30 03:44:33;;;;;;;6.88;4.55;;;23.70;38.50;;;;;;5081629;28;20028;-67
2021/03/30 03:46:59;;;;;;;6.22;4.28;;;23.70;39.10;;;;;;5083089;28;20099;-67
2021/03/30 03:49:25;;;;;;;6.57;4.00;;;23.60;38.50;;;;;;5063135;28;20331;-69
2021/03/30 03:52:00;;;;;;;6.95;4.78;;;23.60;38.50;;;;;;5068008;28;20473;-68
2021/03/30 03:54:28;;;;;;;6.53;4.15;;;23.60;38.50;;;;;;5078560;28;20036;-69
2021/03/30 03:57:03;;;;;;;7.65;4.40;;;23.60;38.50;;;;;;5086529;28;20036;-69
2021/03/30 03:59:32;;;;;;;6.32;4.40;;;23.60;38.50;;;;;;5074639;28;20032;-69
2021/03/30 04:02:22;;;;;;;6.50;4.00;;;23.60;38.50;;;;;;5088172;28;20098;-69
2021/03/30 04:04:53;;;;;;;6.47;4.45;;;23.60;38.60;;;;;;5078102;28;20024;-68
2021/03/30 04:07:26;;;;;;;5.97;3.78;;;23.60;38.60;;;;;;5069036;28;20029;-67
2021/03/30 04:09:53;;;;;;;5.85;3.90;;;23.50;38.50;;;;;;5073595;28;20027;-67
2021/03/30 04:12:21;;;;;;;6.97;4.07;;;23.50;38.50;;;;;;5069610;28;20031;-67
2021/03/30 04:14:47;;;;;;;6.72;4.35;;;23.60;38.60;;;;;;5068896;28;20028;-67
2021/03/30 04:17:15;;;;;;;6.88;3.97;;;23.50;38.60;;;;;;5095727;28;20024;-68
2021/03/30 04:19:40;;;;;;;6.78;4.32;;;23.50;38.60;;;;;;5069408;28;20043;-69
2021/03/30 04:22:06;;;;;;;5.80;4.00;;;23.50;38.60;;;;;;5087287;28;20032;-68
2021/03/30 04:24:32;;;;;;;6.63;3.75;;;23.50;38.60;;;;;;5083118;28;20031;-68
2021/03/30 04:26:58;;;;;;;5.90;3.90;;;23.50;38.70;;;;;;5064203;28;20039;-68
2021/03/30 04:29:24;;;;;;;6.75;4.20;;;23.50;38.60;;;;;;5089132;28;20055;-68
2021/03/30 04:31:49;;;;;;;6.05;3.83;;;23.50;38.60;;;;;;5077133;28;20032;-68
2021/03/30 04:34:15;;;;;;;6.68;3.83;;;23.50;38.70;;;;;;5078586;28;20197;-68
2021/03/30 04:36:41;;;;;;;6.07;3.92;;;23.40;38.60;;;;;;5088501;28;20051;-68
2021/03/30 04:39:06;;;;;;;5.50;3.70;;;23.40;38.60;;;;;;5070081;28;20927;-69
2021/03/30 04:41:32;;;;;;;5.45;3.70;;;23.40;38.60;;;;;;5089172;28;20386;-68
2021/03/30 04:43:58;;;;;;;6.13;3.95;;;23.40;38.60;;;;;;5087319;28;20048;-68
2021/03/30 04:46:23;;;;;;;5.93;4.00;;;23.40;38.70;;;;;;5075519;28;20025;-69
2021/03/30 04:48:49;;;;;;;4.97;3.35;;;23.40;38.70;;;;;;5088763;28;20032;-68
2021/03/30 04:51:15;;;;;;;5.28;3.15;;;23.40;38.70;;;;;;5088184;28;20035;-68
2021/03/30 04:53:40;;;;;;;5.45;3.38;;;23.40;38.70;;;;;;5082891;28;20024;-68
2021/03/30 04:56:09;;;;;;;5.45;3.60;;;23.30;38.60;;;;;;5086444;28;20127;-69
2021/03/30 04:58:35;;;;;;;5.80;3.67;;;23.40;38.70;;;;;;5084081;28;20110;-70
2021/03/30 05:01:01;;;;;;;5.13;3.22;;;23.40;38.80;;;;;;5066995;28;20816;-70
2021/03/30 05:03:26;;;;;;;4.85;3.42;;;23.40;38.70;;;;;;5068214;28;20438;-70
2021/03/30 05:05:52;;;;;;;5.32;3.40;;;23.40;38.70;;;;;;5083022;28;20107;-68
2021/03/30 05:08:18;;;;;;;5.32;3.72;;;23.30;38.70;;;;;;5072442;28;20387;-69
2021/03/30 05:10:43;;;;;;;5.22;3.25;;;23.30;38.70;;;;;;5078534;28;20024;-68
2021/03/30 05:13:09;;;;;;;5.10;3.10;;;23.30;38.70;;;;;;5063730;28;20036;-71
2021/03/30 05:15:34;;;;;;;5.07;3.47;;;23.30;38.70;;;;;;5077634;28;20020;-70
2021/03/30 05:18:00;;;;;;;4.80;3.30;;;23.30;38.70;;;;;;5073466;28;20427;-68
2021/03/30 05:20:26;;;;;;;5.10;3.65;;;23.30;38.80;;;;;;5087133;28;20035;-68
2021/03/30 05:22:51;;;;;;;5.22;3.10;;;23.30;38.80;;;;;;5065516;28;20143;-70
2021/03/30 05:25:17;;;;;;;4.78;3.17;;;23.30;38.80;;;;;;5075001;28;20119;-68
2021/03/30 05:27:43;;;;;;;4.68;3.20;;;23.30;38.80;;;;;;5086510;28;20077;-69
2021/03/30 05:30:11;;;;;;;5.32;3.53;;;23.30;38.80;;;;;;5068831;28;20024;-69
2021/03/30 05:32:36;;;;;;;5.38;3.40;;;23.30;38.80;;;;;;5085895;28;20032;-68
2021/03/30 05:35:05;;;;;;;4.82;3.10;;;23.20;38.80;;;;;;5084394;28;20028;-70
2021/03/30 05:37:31;;;;;;;4.53;2.75;;;23.20;38.70;;;;;;5080985;28;20079;-68
2021/03/30 05:39:56;;;;;;;5.30;3.15;;;23.20;38.80;;;;;;5086688;28;20830;-68
2021/03/30 05:42:22;;;;;;;4.70;3.08;;;23.20;38.80;;;;;;5086047;28;20039;-70
2021/03/30 05:44:52;;;;;;;5.18;3.40;;;23.20;38.80;;;;;;5076301;28;20033;-68
2021/03/30 05:47:21;;;;;;;4.80;2.83;;;23.20;38.80;;;;;;5076722;28;20028;-69
2021/03/30 05:49:49;;;;;;;5.47;3.03;;;23.20;38.90;;;;;;5084717;28;20517;-69
2021/03/30 05:52:23;;;;;;;5.28;2.75;;;23.20;38.90;;;;;;5087247;28;20536;-68
2021/03/30 05:54:50;;;;;;;4.72;3.13;;;23.20;38.90;;;;;;5064314;28;20102;-68
2021/03/30 05:57:17;;;;;;;4.63;2.90;;;23.20;38.90;;;;;;5063749;28;20031;-68
2021/03/30 05:59:45;;;;;;;5.50;3.20;;;23.20;38.90;;;;;;5076198;28;20033;-68
2021/03/30 06:02:20;;;;;;;4.05;2.75;;;23.10;38.80;;;;;;5080618;28;20063;-69
2021/03/30 06:04:47;;;;;;;4.25;3.00;;;23.10;38.80;;;;;;5074467;28;20061;-70
2021/03/30 06:07:12;;;;;;;4.72;3.00;;;23.10;39.40;;;;;;5084610;28;20035;-68
2021/03/30 06:09:44;;;;;;;4.90;2.67;;;23.10;38.90;;;;;;5082797;28;20020;-68
2021/03/30 06:12:12;;;;;;;5.43;3.05;;;23.10;38.90;;;;;;5085908;28;20510;-68
2021/03/30 06:14:39;;;;;;;3.85;2.42;;;23.10;38.90;;;;;;5084379;28;20084;-69
2021/03/30 06:17:06;;;;;;;4.70;2.80;;;23.10;38.90;;;;;;5079244;28;20397;-68
2021/03/30 06:20:03;;;;;;;3.80;2.60;;;23.10;38.90;;;;;;5068867;28;20032;-69
2021/03/30 06:22:29;;;;;;;4.75;2.65;;;23.10;38.90;;;;;;5084665;28;20362;-68
2021/03/30 06:24:55;;;;;;;4.82;2.95;;;23.10;39.00;;;;;;5079874;28;20033;-68
2021/03/30 06:27:28;;;;;;;4.18;2.65;;;23.10;39.00;;;;;;5086306;28;20025;-68
2021/03/30 06:29:57;;;;;;;4.18;2.50;;;23.10;39.00;;;;;;5067286;28;20044;-69
2021/03/30 06:32:26;;;;;;;4.27;2.67;;;23.00;39.50;;;;;;5076278;28;20482;-68
2021/03/30 06:34:58;;;;;;;4.25;2.78;;;23.00;39.00;;;;;;5069850;28;20025;-69
2021/03/30 06:37:40;;;;;;;4.15;2.60;;;23.00;38.90;;;;;;5080068;28;20374;-69
2021/03/30 06:40:37;;;;;;;3.80;2.60;;;23.10;39.10;;;;;;5050134;28;20435;-68
2021/03/30 06:46:07;;;;;;;4.28;2.40;;;23.00;39.00;;;;;;5073954;28;20059;-68
2021/03/30 06:48:33;;;;;;;4.60;2.72;;;23.00;39.00;;;;;;5082945;28;20216;-68
2021/03/30 06:51:21;;;;;;;4.00;2.60;;;23.00;39.00;;;;;;5079848;28;20035;-68
2021/03/30 06:53:46;;;;;;;3.70;2.20;;;23.00;39.00;;;;;;5073233;28;20493;-68
2021/03/30 06:56:12;;;;;;;4.10;2.40;;;23.00;39.10;;;;;;5077417;28;20127;-68
2021/03/30 06:58:55;;;;;;;4.07;2.40;;;23.00;39.00;;;;;;5082020;28;20040;-68
2021/03/30 07:01:26;;;;;;;3.95;2.65;;;23.00;39.10;;;;;;5075970;28;20394;-69
2021/03/30 07:03:55;;;;;;;4.75;2.50;;;23.00;39.10;;;;;;5083310;28;20520;-69
2021/03/30 07:06:23;;;;;;;3.85;2.42;;;23.00;39.10;;;;;;5062329;28;20124;-68
2021/03/30 07:08:50;;;;;;;5.47;2.75;;;23.00;39.10;;;;;;5082889;28;20055;-68
2021/03/30 07:11:17;;;;;;;4.53;2.55;;;23.00;39.10;;;;;;5070599;28;20492;-70
2021/03/30 07:13:43;;;;;;;3.83;2.30;;;23.00;39.10;;;;;;5085255;28;20363;-68
2021/03/30 07:16:23;;;;;;;4.65;2.47;;;23.00;39.10;;;;;;5063742;28;20044;-67
2021/03/30 07:18:55;;;;;;;3.47;2.13;;;22.90;39.10;;;;;;5064387;28;20115;-68
2021/03/30 07:21:33;;;;;;;3.25;2.08;;;23.00;39.20;;;;;;5085569;28;20044;-68
2021/03/30 07:24:08;;;;;;;3.78;2.45;;;22.90;39.10;;;;;;5084153;28;20146;-70
2021/03/30 07:26:37;;;;;;;4.13;2.40;;;22.90;39.20;;;;;;5069175;28;20413;-70
2021/03/30 07:29:06;;;;;;;3.30;2.27;;;23.00;39.20;;;;;;5082077;28;20033;-68
2021/03/30 07:31:59;;;;;;;3.38;2.30;;;22.90;39.20;;;;;;5085361;28;20285;-68
2021/03/30 07:34:52;;;;;;;2.63;1.70;;;22.90;39.20;;;;;;5086469;28;20032;-70
2021/03/30 07:37:27;;;;;;;3.67;2.28;;;22.90;39.20;;;;;;5079729;28;20048;-68
2021/03/30 07:39:56;;;;;;;3.28;2.00;;;22.90;39.20;;;;;;5068640;28;20024;-68
2021/03/30 07:42:23;;;;;;;3.15;2.10;;;22.90;39.20;;;;;;5086274;28;20453;-69
2021/03/30 07:44:49;;;;;;;3.20;2.08;;;22.90;39.20;;;;;;5087276;28;20027;-68
2021/03/30 07:47:17;;;;;;;3.35;2.17;;;22.90;39.20;;;;;;5066245;28;20453;-70
2021/03/30 07:49:50;;;;;;;3.05;1.90;;;22.90;39.20;;;;;;5066933;28;20427;-68
2021/03/30 07:52:21;;;;;;;3.80;2.40;;;22.90;39.20;;;;;;5080990;28;20485;-70
2021/03/30 07:55:18;;;;;;;3.55;1.98;;;22.90;39.20;;;;;;5074337;28;20048;-69
2021/03/30 07:58:07;;;;;;;3.67;2.33;;;22.90;39.20;;;;;;5083552;28;20032;-68
2021/03/30 08:00:33;;;;;;;2.85;2.03;;;22.90;39.20;;;;;;5084790;28;20087;-68
2021/03/30 08:03:34;;;;;;;5.50;2.13;;;22.90;39.20;;;;;;5086644;28;21841;-69
2021/03/30 08:06:36;;;;;;;3.30;2.10;;;22.90;39.20;;;;;;5028552;28;20462;-68
2021/03/30 08:09:07;;;;;;;4.30;2.20;;;22.80;39.20;;;;;;5085821;28;20474;-70
2021/03/30 08:11:43;;;;;;;2.85;1.75;;;22.90;39.20;;;;;;5087357;28;20021;-69
2021/03/30 08:14:37;;;;;;;3.20;2.00;;;22.90;39.20;;;;;;5064549;28;20055;-69
2021/03/30 08:17:05;;;;;;;2.88;1.80;;;22.90;39.20;;;;;;5084035;28;20036;-69
2021/03/30 08:19:31;;;;;;;3.97;2.10;;;22.80;39.20;;;;;;5087862;28;20135;-68
2021/03/30 08:22:02;;;;;;;3.40;2.15;;;22.80;39.20;;;;;;5089105;28;20428;-69
2021/03/30 08:24:44;;;;;;;3.38;2.05;;;22.90;39.20;;;;;;5068897;28;20032;-69
2021/03/30 08:27:32;;;;;;;3.30;2.10;;;22.90;39.20;;;;;;5085504;28;20024;-69
2021/03/30 08:29:58;;;;;;;2.92;2.00;;;22.90;39.20;;;;;;5086220;28;20032;-68
2021/03/30 08:32:24;;;;;;;3.65;1.90;;;22.80;39.20;;;;;;5081294;28;20044;-68
2021/03/30 08:34:50;;;;;;;3.33;2.00;;;22.80;39.20;;;;;;5065399;28;20237;-68
2021/03/30 08:37:16;;;;;;;3.15;2.00;;;22.80;39.20;;;;;;5064562;28;20510;-69
2021/03/30 08:39:42;;;;;;;3.40;1.80;;;22.80;39.20;;;;;;5068766;28;20043;-69
2021/03/30 08:42:16;;;;;;;3.40;1.80;;;22.80;39.20;;;;;;5087440;28;20028;-67
2021/03/30 08:44:48;;;;;;;3.10;1.80;;;22.80;39.20;;;;;;5087185;28;20035;-69
2021/03/30 08:47:35;;;;;;;3.10;1.80;;;22.80;39.20;;;;;;5067143;28;20352;-69
2021/03/30 08:50:23;;;;;;;2.63;1.80;;;22.90;39.30;;;;;;5088836;28;20123;-69
2021/03/30 08:52:54;;;;;;;2.83;1.98;;;22.90;39.30;;;;;;5073392;28;20024;-68
2021/03/30 08:55:31;;;;;;;3.03;1.70;;;22.90;39.30;;;;;;5076387;28;20105;-68
2021/03/30 08:58:01;;;;;;;3.22;2.00;;;22.80;39.20;;;;;;5082703;28;20024;-69
2021/03/30 09:00:28;;;;;;;3.50;1.80;;;22.80;39.20;;;;;;5084804;28;20040;-69
2021/03/30 09:03:02;;;;;;;2.70;1.58;;;22.80;39.20;;;;;;5049934;28;20028;-70
2021/03/30 09:05:28;;;;;;;2.80;1.70;;;22.90;39.30;;;;;;5078995;28;20024;-68
2021/03/30 09:07:53;;;;;;;3.25;1.83;;;22.90;39.30;;;;;;5072933;28;20316;-70
2021/03/30 09:10:20;;;;;;;2.63;1.73;;;22.80;39.30;;;;;;5086563;28;20492;-70
2021/03/30 09:12:46;;;;;;;3.33;1.90;;;22.80;39.30;;;;;;5077011;28;20481;-68
2021/03/30 09:15:14;;;;;;;2.65;1.60;;;22.80;39.30;;;;;;5070898;28;20082;-68
2021/03/30 09:17:59;;;;;;;2.25;1.50;;;22.80;39.30;;;;;;5083259;28;20036;-69
2021/03/30 09:20:30;;;;;;;2.60;1.70;;;22.90;39.30;;;;;;5075768;28;20032;-69
2021/03/30 09:23:00;;;;;;;2.80;1.70;;;22.80;39.30;;;;;;5084144;28;20530;-70
2021/03/30 09:25:41;;;;;;;2.85;1.80;;;22.90;39.30;;;;;;5078954;28;20020;-68
2021/03/30 09:28:33;;;;;;;2.83;1.70;;;22.80;39.30;;;;;;5076948;28;20024;-68
2021/03/30 09:30:59;;;;;;;2.70;1.60;;;22.80;39.30;;;;;;5071954;28;20099;-68
2021/03/30 09:33:25;;;;;;;2.65;1.70;;;22.90;39.40;;;;;;5082773;28;20139;-69
2021/03/30 09:35:50;;;;;;;2.88;1.70;;;22.80;39.30;;;;;;5065343;28;20039;-70
2021/03/30 09:38:16;;;;;;;2.95;1.65;;;22.80;39.30;;;;;;5051146;28;20119;-68
2021/03/30 09:40:44;;;;;;;2.60;1.73;;;22.80;39.40;;;;;;5072640;28;20028;-69
2021/03/30 09:43:14;;;;;;;3.10;1.90;;;22.80;39.40;;;;;;5085799;28;20052;-68
2021/03/30 09:45:41;;;;;;;2.95;1.60;;;22.90;39.40;;;;;;5083665;28;20046;-68
2021/03/30 09:48:09;;;;;;;3.22;1.67;;;22.80;39.30;;;;;;5086936;28;20032;-69
2021/03/30 09:50:41;;;;;;;2.42;1.50;;;22.90;39.40;;;;;;5066977;28;20052;-68
2021/03/30 09:53:08;;;;;;;3.00;1.60;;;22.90;39.40;;;;;;5085685;28;20107;-68
2021/03/30 09:55:43;;;;;;;2.90;1.70;;;22.80;39.40;;;;;;5082965;28;20034;-69
2021/03/30 09:58:11;;;;;;;2.35;1.60;;;22.80;39.30;;;;;;5076044;28;20054;-68
2021/03/30 10:00:42;;;;;;;2.42;1.50;;;22.90;39.40;;;;;;5076553;28;20095;-70
2021/03/30 10:03:10;;;;;;;2.60;1.50;;;22.80;39.40;;;;;;5076658;28;20028;-68
2021/03/30 10:05:38;;;;;;;3.25;1.60;;;22.90;39.40;;;;;;5077528;28;20025;-68
2021/03/30 10:08:05;;;;;;;3.25;1.77;;;22.80;39.30;;;;;;5083762;28;20026;-69
2021/03/30 10:10:51;;;;;;;3.60;1.75;;;22.90;39.40;;;;;;5069876;28;20054;-69
2021/03/30 10:13:26;;;;;;;2.55;1.70;;;22.90;39.40;;;;;;5084979;28;20055;-69
2021/03/30 10:15:52;;;;;;;2.88;1.65;;;22.90;39.40;;;;;;5077953;28;20119;-71
2021/03/30 10:18:20;;;;;;;2.70;1.65;;;22.90;39.90;;;;;;5083350;28;20035;-68
2021/03/30 10:20:48;;;;;;;2.95;1.77;;;22.90;39.40;;;;;;5068168;28;20038;-69
2021/03/30 10:23:20;;;;;;;2.90;1.60;;;22.90;39.40;;;;;;5086856;28;20031;-68
2021/03/30 10:25:50;;;;;;;2.75;1.50;;;22.90;39.90;;;;;;5064795;28;20044;-69
2021/03/30 10:28:29;;;;;;;3.47;1.70;;;22.90;39.40;;;;;;5083293;28;20028;-69
2021/03/30 10:31:02;;;;;;;2.30;1.50;;;22.90;39.40;;;;;;5053957;28;20024;-71
2021/03/30 10:33:48;;;;;;;2.75;1.50;;;22.90;39.40;;;;;;5087212;28;20285;-68
2021/03/30 10:36:15;;;;;;;2.45;1.38;;;22.90;39.40;;;;;;5086450;28;20489;-68
2021/03/30 10:39:00;;;;;;;2.75;1.45;;;22.90;39.30;;;;;;5071349;28;20055;-68
2021/03/30 10:41:46;;;;;;;2.92;1.70;;;22.90;39.40;;;;;;5085685;28;20054;-69
2021/03/30 10:44:15;;;;;;;2.40;1.48;;;22.90;39.30;;;;;;5067420;28;20036;-69
2021/03/30 10:46:48;;;;;;;2.60;1.80;;;22.90;39.30;;;;;;5084872;28;20370;-68
2021/03/30 10:49:15;;;;;;;3.22;1.42;;;22.90;39.20;;;;;;5072291;28;20055;-70
2021/03/30 10:51:43;;;;;;;2.33;1.50;;;22.90;39.30;;;;;;5089738;28;20090;-69
2021/03/30 10:54:11;;;;;;;2.75;1.50;;;22.90;39.20;;;;;;5071071;28;20044;-68
2021/03/30 10:56:39;;;;;;;2.95;1.60;;;22.90;39.20;;;;;;5079915;28;20425;-65
2021/03/30 10:59:10;;;;;;;3.70;1.80;;;22.90;39.20;;;;;;5090030;28;20082;-64
2021/03/30 11:01:36;;;;;;;3.60;2.08;;;22.90;38.40;;;;;;5056851;28;20070;-68
2021/03/30 11:04:01;;;;;;;4.97;3.08;;;22.90;37.40;;;;;;5071632;28;20016;-69
2021/03/30 11:06:27;;;;;;;4.55;2.90;;;22.90;36.10;;;;;;5083344;28;20076;-69
2021/03/30 11:08:53;;;;;;;4.22;3.30;;;22.90;35.70;;;;;;5085062;28;20032;-69
2021/03/30 11:11:18;;;;;;;4.82;3.60;;;22.80;35.20;;;;;;5065329;28;20038;-69
2021/03/30 11:13:44;;;;;;;4.93;3.72;;;22.80;34.90;;;;;;5083710;28;20101;-69
2021/03/30 11:16:10;;;;;;;5.68;4.00;;;22.80;34.60;;;;;;5077437;28;20039;-69
2021/03/30 11:18:36;;;;;;;6.47;4.05;;;22.80;34.50;;;;;;5083159;28;20032;-69
2021/03/30 11:21:01;;;;;;;5.40;3.92;;;22.70;34.50;;;;;;5062649;28;20037;-69
2021/03/30 11:23:27;;;;;;;5.60;4.00;;;22.70;35.00;;;;;;5083354;28;20032;-69
2021/03/30 11:25:53;;;;;;;5.90;4.13;;;22.70;34.40;;;;;;5059886;28;20047;-68
2021/03/30 11:28:19;;;;;;;5.38;4.30;;;22.70;34.20;;;;;;5079694;28;20028;-69
2021/03/30 11:30:52;;;;;;;6.68;4.70;;;22.70;34.00;;;;;;5080901;28;20043;-68
2021/03/30 11:33:27;;;;;;;5.78;4.00;;;22.70;34.00;;;;;;5084360;28;20032;-69
2021/03/30 11:36:16;;;;;;;5.88;4.43;;;22.70;33.80;;;;;;5081045;28;20032;-68
2021/03/30 11:38:39;;;;;;;6.40;4.28;;;22.70;33.30;;;;;;5082908;28;20044;-69
2021/03/30 11:41:04;;;;;;;5.45;3.88;;;22.70;32.40;;;;;;5079175;28;20448;-69
2021/03/30 11:43:30;;;;;;;5.55;3.88;;;22.70;32.50;;;;;;5084721;28;20469;-69
2021/03/30 11:45:56;;;;;;;6.15;3.90;;;22.70;32.20;;;;;;5077772;28;20024;-69
2021/03/30 11:48:21;;;;;;;5.35;3.95;;;22.60;32.10;;;;;;5077653;28;20020;-69
2021/03/30 11:50:49;;;;;;;4.60;3.38;;;22.60;31.80;;;;;;5069413;28;20386;-69
2021/03/30 11:53:14;;;;;;;6.05;3.60;;;22.60;31.90;;;;;;5081320;28;20028;-69
2021/03/30 11:55:40;;;;;;;4.97;3.65;;;22.70;31.30;;;;;;5080488;28;20105;-69
2021/03/30 11:58:06;;;;;;;5.53;3.60;;;22.60;30.90;;;;;;5063685;28;20031;-72
2021/03/30 12:00:31;;;;;;;4.47;3.38;;;22.60;31.00;;;;;;5083416;28;20036;-68
2021/03/30 12:02:57;;;;;;;4.82;2.80;;;22.60;31.40;;;;;;5084555;28;20096;-72
2021/03/30 12:05:23;;;;;;;4.10;2.40;;;22.60;31.40;;;;;;5080579;28;20079;-71
2021/03/30 12:07:48;;;;;;;3.80;2.50;;;22.70;31.50;;;;;;5054011;28;20387;-72
2021/03/30 12:10:14;;;;;;;4.53;2.50;;;22.60;31.70;;;;;;5082365;28;20096;-73
2021/03/30 12:12:40;;;;;;;3.30;2.15;;;22.70;31.90;;;;;;5079926;28;20055;-72
2021/03/30 12:15:08;;;;;;;2.80;1.80;;;22.70;32.10;;;;;;5087868;28;20297;-72
2021/03/30 12:17:34;;;;;;;2.58;1.77;;;22.60;32.20;;;;;;5083897;28;20358;-72
2021/03/30 12:19:59;;;;;;;3.17;1.70;;;22.70;32.40;;;;;;5082921;28;20032;-72
2021/03/30 12:22:26;;;;;;;2.58;1.63;;;22.70;32.60;;;;;;5082616;28;20101;-71
2021/03/30 12:24:52;;;;;;;2.90;1.65;;;22.70;32.70;;;;;;5084600;28;20020;-72
2021/03/30 12:27:17;;;;;;;3.42;1.40;;;22.70;32.80;;;;;;5085791;28;20053;-71
2021/03/30 12:29:43;;;;;;;2.67;1.60;;;22.70;33.00;;;;;;5088882;28;20028;-72
2021/03/30 12:32:11;;;;;;;3.13;1.40;;;22.70;33.10;;;;;;5078241;28;20040;-70
2021/03/30 12:34:40;;;;;;;2.65;1.35;;;22.70;33.40;;;;;;5070256;28;20066;-72
2021/03/30 12:37:06;;;;;;;2.38;1.30;;;22.80;33.90;;;;;;5086227;28;20051;-72
2021/03/30 12:39:32;;;;;;;2.28;1.20;;;22.70;33.90;;;;;;5065314;28;21607;-72
2021/03/30 12:41:57;;;;;;;1.83;1.00;;;22.80;33.80;;;;;;5077783;28;20077;-73
2021/03/30 12:44:25;;;;;;;2.42;1.20;;;22.80;34.00;;;;;;5062721;28;20103;-71
2021/03/30 12:46:51;;;;;;;1.30;1.02;;;22.80;34.10;;;;;;5085562;28;23434;-72
2021/03/30 12:49:16;;;;;;;2.05;1.10;;;22.80;34.20;;;;;;5086956;28;20042;-72
2021/03/30 12:51:42;;;;;;;1.38;0.93;;;22.80;34.70;;;;;;5087807;28;20067;-71
2021/03/30 12:54:08;;;;;;;1.60;1.02;;;22.80;34.30;;;;;;5061379;28;20020;-72
2021/03/30 12:56:33;;;;;;;1.85;1.00;;;22.80;34.30;;;;;;5080907;28;20091;-72
2021/03/30 12:58:59;;;;;;;1.85;1.00;;;22.80;34.30;;;;;;5079044;28;20491;-71
2021/03/30 13:01:25;;;;;;;2.58;1.15;;;22.80;34.30;;;;;;5079533;28;20056;-72
2021/03/30 13:03:50;;;;;;;1.63;1.00;;;22.80;34.40;;;;;;5078863;28;20020;-72